sensor_id;sensor_type;location;lat;lon;timestamp;pressure;altitude;pressure_sealevel;temperature;humidity
74637;BME280;63141;54.616;39.754;2022-11-27T00:02:59;101689.75;;;24.03;30.42
74637;BME280;63141;54.616;39.754;2022-11-27T00:06:00;101694.19;;;24.03;30.17
74637;BME280;63141;54.616;39.754;2022-11-27T00:09:07;101704.84;;;24.03;30.15
74637;BME280;63141;54.616;39.754;2022-11-27T00:12:09;101697.75;;;24.02;30.09
74637;BME280;63141;54.616;39.754;2022-11-27T00:15:10;101693.34;;;24.01;30.27
74637;BME280;63141;54.616;39.754;2022-11-27T00:18:12;101697.75;;;24.02;30.05
74637;BME280;63141;54.616;39.754;2022-11-27T00:24:19;101701.34;;;24.01;30.22
74637;BME280;63141;54.616;39.754;2022-11-27T00:27:21;101700.44;;;24.00;30.00
74637;BME280;63141;54.616;39.754;2022-11-27T00:30:22;101701.34;;;24.01;30.04
74637;BME280;63141;54.616;39.754;2022-11-27T00:33:24;101700.44;;;24.00;30.18
74637;BME280;63141;54.616;39.754;2022-11-27T00:36:26;101690.69;;;24.01;30.20
74637;BME280;63141;54.616;39.754;2022-11-27T00:39:28;101692.44;;;24.00;30.29
74637;BME280;63141;54.616;39.754;2022-11-27T00:42:29;101698.63;;;24.02;29.95
74637;BME280;63141;54.616;39.754;2022-11-27T00:45:30;101695.09;;;24.00;30.11
74637;BME280;63141;54.616;39.754;2022-11-27T00:48:32;101688.91;;;24.00;29.84
74637;BME280;63141;54.616;39.754;2022-11-27T00:51:34;101696.00;;;24.01;30.24
74637;BME280;63141;54.616;39.754;2022-11-27T00:54:35;101693.38;;;23.99;30.22
74637;BME280;63141;54.616;39.754;2022-11-27T00:57:37;101699.56;;;24.00;30.24
74637;BME280;63141;54.616;39.754;2022-11-27T01:00:38;101696.91;;;24.00;30.24
74637;BME280;63141;54.616;39.754;2022-11-27T01:03:46;101703.09;;;24.00;30.20
74637;BME280;63141;54.616;39.754;2022-11-27T01:06:47;101704.88;;;24.00;30.16
74637;BME280;63141;54.616;39.754;2022-11-27T01:09:49;101702.22;;;24.00;29.95
74637;BME280;63141;54.616;39.754;2022-11-27T01:12:50;101704.00;;;24.01;29.90
74637;BME280;63141;54.616;39.754;2022-11-27T01:16:05;101711.06;;;24.00;30.08
74637;BME280;63141;54.616;39.754;2022-11-27T01:19:09;101712.03;;;23.98;30.13
74637;BME280;63141;54.616;39.754;2022-11-27T01:22:11;101711.13;;;23.99;29.95
74637;BME280;63141;54.616;39.754;2022-11-27T01:25:12;101715.53;;;24.00;30.11
74637;BME280;63141;54.616;39.754;2022-11-27T01:28:15;101705.81;;;23.99;30.12
74637;BME280;63141;54.616;39.754;2022-11-27T01:31:22;101704.88;;;24.00;29.88
74637;BME280;63141;54.616;39.754;2022-11-27T01:34:29;101704.03;;;23.99;29.84
74637;BME280;63141;54.616;39.754;2022-11-27T01:37:30;101707.56;;;24.00;30.01
74637;BME280;63141;54.616;39.754;2022-11-27T01:40:31;101712.88;;;24.00;29.83
74637;BME280;63141;54.616;39.754;2022-11-27T01:46:45;101711.97;;;24.01;30.03
74637;BME280;63141;54.616;39.754;2022-11-27T01:49:51;101713.75;;;24.00;30.02
74637;BME280;63141;54.616;39.754;2022-11-27T01:52:58;101720.84;;;24.00;29.77
74637;BME280;63141;54.616;39.754;2022-11-27T01:56:01;101724.38;;;24.00;30.01
74637;BME280;63141;54.616;39.754;2022-11-27T01:59:03;101720.84;;;24.00;29.72
74637;BME280;63141;54.616;39.754;2022-11-27T02:02:04;101720.00;;;23.99;30.02
74637;BME280;63141;54.616;39.754;2022-11-27T02:05:18;101719.97;;;24.01;30.09
74637;BME280;63141;54.616;39.754;2022-11-27T02:08:20;101716.47;;;23.99;29.91
74637;BME280;63141;54.616;39.754;2022-11-27T02:11:50;101720.00;;;23.99;29.96
74637;BME280;63141;54.616;39.754;2022-11-27T02:21:44;101727.03;;;24.00;29.87
74637;BME280;63141;54.616;39.754;2022-11-27T02:25:09;101715.53;;;24.00;29.71
74637;BME280;63141;54.616;39.754;2022-11-27T02:28:30;101719.06;;;24.00;29.82
74637;BME280;63141;54.616;39.754;2022-11-27T02:35:21;101720.84;;;24.00;29.71
74637;BME280;63141;54.616;39.754;2022-11-27T02:38:40;101724.44;;;23.99;29.90
74637;BME280;63141;54.616;39.754;2022-11-27T02:41:51;101713.81;;;23.99;29.94
74637;BME280;63141;54.616;39.754;2022-11-27T02:45:02;101720.00;;;23.99;29.81
74637;BME280;63141;54.616;39.754;2022-11-27T02:48:06;101718.19;;;24.00;29.64
74637;BME280;63141;54.616;39.754;2022-11-27T02:51:08;101725.31;;;23.99;29.75
74637;BME280;63141;54.616;39.754;2022-11-27T02:54:15;101724.44;;;23.99;29.68
74637;BME280;63141;54.616;39.754;2022-11-27T02:57:19;101724.44;;;23.99;29.75
74637;BME280;63141;54.616;39.754;2022-11-27T03:00:24;101716.47;;;23.99;29.52
74637;BME280;63141;54.616;39.754;2022-11-27T03:03:31;101726.19;;;24.00;29.92
74637;BME280;63141;54.616;39.754;2022-11-27T03:06:43;101729.75;;;23.99;29.62
74637;BME280;63141;54.616;39.754;2022-11-27T03:09:48;101731.56;;;23.98;29.88
74637;BME280;63141;54.616;39.754;2022-11-27T03:12:50;101724.44;;;23.99;29.84
74637;BME280;63141;54.616;39.754;2022-11-27T03:19:15;101729.75;;;23.99;29.63
74637;BME280;63141;54.616;39.754;2022-11-27T03:22:19;101731.50;;;24.00;29.89
74637;BME280;63141;54.616;39.754;2022-11-27T03:25:21;101732.44;;;23.99;29.66
74637;BME280;63141;54.616;39.754;2022-11-27T03:28:23;101741.28;;;23.99;29.90
74637;BME280;63141;54.616;39.754;2022-11-27T03:31:25;101735.97;;;23.99;29.78
74637;BME280;63141;54.616;39.754;2022-11-27T03:34:27;101731.50;;;24.00;29.79
74637;BME280;63141;54.616;39.754;2022-11-27T03:37:29;101726.19;;;24.00;29.62
74637;BME280;63141;54.616;39.754;2022-11-27T03:40:56;101726.19;;;24.00;29.63
74637;BME280;63141;54.616;39.754;2022-11-27T03:44:16;101731.50;;;24.00;29.85
74637;BME280;63141;54.616;39.754;2022-11-27T03:57:44;101731.50;;;24.00;29.90
74637;BME280;63141;54.616;39.754;2022-11-27T04:00:51;101736.81;;;24.00;29.97
74637;BME280;63141;54.616;39.754;2022-11-27T04:03:53;101738.59;;;24.01;29.88
74637;BME280;63141;54.616;39.754;2022-11-27T04:06:57;101734.16;;;24.00;29.85
74637;BME280;63141;54.616;39.754;2022-11-27T04:09:58;101732.38;;;24.00;29.91
74637;BME280;63141;54.616;39.754;2022-11-27T04:12:59;101743.00;;;24.00;29.75
74637;BME280;63141;54.616;39.754;2022-11-27T04:16:01;101731.50;;;24.00;29.85
74637;BME280;63141;54.616;39.754;2022-11-27T04:19:03;101740.34;;;24.00;29.55
74637;BME280;63141;54.616;39.754;2022-11-27T04:22:04;101737.69;;;24.00;29.94
74637;BME280;63141;54.616;39.754;2022-11-27T04:25:06;101737.69;;;24.00;29.69
74637;BME280;63141;54.616;39.754;2022-11-27T04:28:08;101738.59;;;24.01;29.89
74637;BME280;63141;54.616;39.754;2022-11-27T04:31:09;101739.47;;;24.01;29.87
74637;BME280;63141;54.616;39.754;2022-11-27T04:34:10;101743.91;;;24.01;29.59
74637;BME280;63141;54.616;39.754;2022-11-27T04:37:12;101749.25;;;24.01;29.85
74637;BME280;63141;54.616;39.754;2022-11-27T04:40:13;101748.34;;;24.00;29.75
74637;BME280;63141;54.616;39.754;2022-11-27T04:43:14;101748.41;;;23.99;29.96
74637;BME280;63141;54.616;39.754;2022-11-27T04:46:16;101758.19;;;23.97;29.92
74637;BME280;63141;54.616;39.754;2022-11-27T04:49:17;101754.69;;;23.95;29.96
74637;BME280;63141;54.616;39.754;2022-11-27T04:52:19;101750.31;;;23.92;30.15
74637;BME280;63141;54.616;39.754;2022-11-27T04:55:20;101756.50;;;23.93;29.78
74637;BME280;63141;54.616;39.754;2022-11-27T04:58:21;101755.63;;;23.92;30.01
74637;BME280;63141;54.616;39.754;2022-11-27T05:01:23;101758.31;;;23.92;29.72
74637;BME280;63141;54.616;39.754;2022-11-27T05:04:29;101755.63;;;23.92;29.73
74637;BME280;63141;54.616;39.754;2022-11-27T05:07:31;101757.38;;;23.93;29.86
74637;BME280;63141;54.616;39.754;2022-11-27T05:10:32;101760.09;;;23.92;29.73
74637;BME280;63141;54.616;39.754;2022-11-27T05:13:34;101756.50;;;23.93;30.03
74637;BME280;63141;54.616;39.754;2022-11-27T05:16:35;101756.50;;;23.93;30.24
74637;BME280;63141;54.616;39.754;2022-11-27T05:19:36;101762.75;;;23.92;30.24
74637;BME280;63141;54.616;39.754;2022-11-27T05:22:38;101766.31;;;23.91;30.14
74637;BME280;63141;54.616;39.754;2022-11-27T05:25:39;101756.59;;;23.90;30.25
74637;BME280;63141;54.616;39.754;2022-11-27T05:28:40;101766.38;;;23.88;30.15
74637;BME280;63141;54.616;39.754;2022-11-27T05:31:42;101762.84;;;23.87;30.53
74637;BME280;63141;54.616;39.754;2022-11-27T05:34:43;101762.88;;;23.86;30.49
74637;BME280;63141;54.616;39.754;2022-11-27T05:37:45;101774.38;;;23.86;30.52
74637;BME280;63141;54.616;39.754;2022-11-27T05:40:47;101777.97;;;23.85;30.48
74637;BME280;63141;54.616;39.754;2022-11-27T05:43:48;101771.72;;;23.86;30.63
74637;BME280;63141;54.616;39.754;2022-11-27T05:46:50;101771.72;;;23.88;30.40
74637;BME280;63141;54.616;39.754;2022-11-27T05:49:51;101779.59;;;23.91;30.45
74637;BME280;63141;54.616;39.754;2022-11-27T05:52:53;101772.47;;;23.93;30.52
74637;BME280;63141;54.616;39.754;2022-11-27T05:56:03;101770.66;;;23.95;30.89
74637;BME280;63141;54.616;39.754;2022-11-27T05:59:04;101775.03;;;23.97;30.72
74637;BME280;63141;54.616;39.754;2022-11-27T06:02:06;101771.47;;;23.98;30.80
74637;BME280;63141;54.616;39.754;2022-11-27T06:05:12;101765.22;;;23.99;30.93
74637;BME280;63141;54.616;39.754;2022-11-27T06:08:14;101766.97;;;24.00;30.69
74637;BME280;63141;54.616;39.754;2022-11-27T06:11:18;101759.88;;;24.01;30.94
74637;BME280;63141;54.616;39.754;2022-11-27T06:14:20;101754.56;;;24.01;30.76
74637;BME280;63141;54.616;39.754;2022-11-27T06:17:21;101758.06;;;24.03;30.91
74637;BME280;63141;54.616;39.754;2022-11-27T06:20:23;101769.59;;;24.03;30.94
74637;BME280;63141;54.616;39.754;2022-11-27T06:23:24;101767.78;;;24.04;31.04
74637;BME280;63141;54.616;39.754;2022-11-27T06:26:28;101773.13;;;24.04;31.14
74637;BME280;63141;54.616;39.754;2022-11-27T06:29:30;101776.66;;;24.04;31.34
74637;BME280;63141;54.616;39.754;2022-11-27T06:32:31;101778.44;;;24.04;31.18
74637;BME280;63141;54.616;39.754;2022-11-27T06:35:33;101782.84;;;24.05;31.31
74637;BME280;63141;54.616;39.754;2022-11-27T06:38:35;101785.50;;;24.05;31.26
74637;BME280;63141;54.616;39.754;2022-11-27T06:41:37;101785.50;;;24.05;31.29
74637;BME280;63141;54.616;39.754;2022-11-27T06:44:39;101788.16;;;24.05;31.54
74637;BME280;63141;54.616;39.754;2022-11-27T06:47:40;101789.06;;;24.06;31.45
74637;BME280;63141;54.616;39.754;2022-11-27T06:50:41;101792.59;;;24.06;31.41
74637;BME280;63141;54.616;39.754;2022-11-27T06:53:43;101791.66;;;24.07;31.45
74637;BME280;63141;54.616;39.754;2022-11-27T06:56:44;101798.75;;;24.08;31.57
74637;BME280;63141;54.616;39.754;2022-11-27T06:59:46;101796.03;;;24.10;31.49
74637;BME280;63141;54.616;39.754;2022-11-27T07:02:53;101802.28;;;24.10;31.68
74637;BME280;63141;54.616;39.754;2022-11-27T07:05:58;101796.94;;;24.10;31.75
74637;BME280;63141;54.616;39.754;2022-11-27T07:09:03;101806.66;;;24.11;31.79
74637;BME280;63141;54.616;39.754;2022-11-27T07:12:05;101809.31;;;24.11;31.64
74637;BME280;63141;54.616;39.754;2022-11-27T07:15:08;101798.69;;;24.11;31.65
74637;BME280;63141;54.616;39.754;2022-11-27T07:18:10;101803.13;;;24.12;31.90
74637;BME280;63141;54.616;39.754;2022-11-27T07:21:11;101806.63;;;24.13;31.74
74637;BME280;63141;54.616;39.754;2022-11-27T07:24:13;101812.84;;;24.13;32.04
74637;BME280;63141;54.616;39.754;2022-11-27T07:27:14;101814.56;;;24.14;32.17
74637;BME280;63141;54.616;39.754;2022-11-27T07:30:16;101811.03;;;24.14;32.26
74637;BME280;63141;54.616;39.754;2022-11-27T07:33:17;101813.75;;;24.12;32.16
74637;BME280;63141;54.616;39.754;2022-11-27T07:36:24;101804.00;;;24.11;32.09
74637;BME280;63141;54.616;39.754;2022-11-27T07:39:26;101801.34;;;24.11;32.05
74637;BME280;63141;54.616;39.754;2022-11-27T07:42:27;101798.69;;;24.11;32.05
74637;BME280;63141;54.616;39.754;2022-11-27T07:45:29;101793.34;;;24.11;32.01
74637;BME280;63141;54.616;39.754;2022-11-27T07:48:31;101800.47;;;24.11;31.94
74637;BME280;63141;54.616;39.754;2022-11-27T07:51:32;101806.66;;;24.11;31.83
74637;BME280;63141;54.616;39.754;2022-11-27T07:54:34;101804.88;;;24.12;31.95
74637;BME280;63141;54.616;39.754;2022-11-27T07:57:36;101806.69;;;24.10;31.97
74637;BME280;63141;54.616;39.754;2022-11-27T08:00:37;101818.25;;;24.10;31.65
74637;BME280;63141;54.616;39.754;2022-11-27T08:03:44;101807.59;;;24.10;31.56
74637;BME280;63141;54.616;39.754;2022-11-27T08:06:47;101808.47;;;24.09;31.78
74637;BME280;63141;54.616;39.754;2022-11-27T08:09:49;101810.25;;;24.10;31.51
74637;BME280;63141;54.616;39.754;2022-11-27T08:12:50;101810.25;;;24.10;31.36
74637;BME280;63141;54.616;39.754;2022-11-27T08:15:52;101811.16;;;24.09;31.49
74637;BME280;63141;54.616;39.754;2022-11-27T08:18:54;101810.25;;;24.10;31.31
74637;BME280;63141;54.616;39.754;2022-11-27T08:21:55;101810.28;;;24.09;31.31
74637;BME280;63141;54.616;39.754;2022-11-27T08:24:57;101809.41;;;24.08;31.47
74637;BME280;63141;54.616;39.754;2022-11-27T08:27:58;101804.09;;;24.08;31.51
74637;BME280;63141;54.616;39.754;2022-11-27T08:31:02;101814.72;;;24.08;31.46
74637;BME280;63141;54.616;39.754;2022-11-27T08:34:04;101809.41;;;24.08;31.06
74637;BME280;63141;54.616;39.754;2022-11-27T08:37:06;101809.41;;;24.08;31.01
74637;BME280;63141;54.616;39.754;2022-11-27T08:40:08;101810.31;;;24.07;31.04
74637;BME280;63141;54.616;39.754;2022-11-27T08:43:09;101802.31;;;24.07;31.01
74637;BME280;63141;54.616;39.754;2022-11-27T08:46:11;101813.88;;;24.06;31.32
74637;BME280;63141;54.616;39.754;2022-11-27T08:49:13;101819.22;;;24.06;31.13
74637;BME280;63141;54.616;39.754;2022-11-27T08:52:14;101823.59;;;24.07;31.19
74637;BME280;63141;54.616;39.754;2022-11-27T08:55:16;101812.97;;;24.07;30.86
74637;BME280;63141;54.616;39.754;2022-11-27T08:58:17;101813.88;;;24.06;30.90
74637;BME280;63141;54.616;39.754;2022-11-27T09:01:21;101813.88;;;24.06;30.85
74637;BME280;63141;54.616;39.754;2022-11-27T09:04:28;101812.97;;;24.07;30.66
74637;BME280;63141;54.616;39.754;2022-11-27T09:07:30;101816.53;;;24.06;30.67
74637;BME280;63141;54.616;39.754;2022-11-27T09:10:31;101816.53;;;24.06;30.97
74637;BME280;63141;54.616;39.754;2022-11-27T09:13:33;101810.31;;;24.07;30.94
74637;BME280;63141;54.616;39.754;2022-11-27T09:16:37;101812.09;;;24.07;30.93
74637;BME280;63141;54.616;39.754;2022-11-27T09:19:39;101807.63;;;24.07;30.80
74637;BME280;63141;54.616;39.754;2022-11-27T09:22:40;101811.22;;;24.06;30.92
74637;BME280;63141;54.616;39.754;2022-11-27T09:25:42;101805.03;;;24.06;30.55
74637;BME280;63141;54.616;39.754;2022-11-27T09:28:43;101805.06;;;24.04;30.98
74637;BME280;63141;54.616;39.754;2022-11-27T09:31:44;101802.41;;;24.02;30.90
74637;BME280;63141;54.616;39.754;2022-11-27T09:34:46;101804.22;;;24.02;30.96
74637;BME280;63141;54.616;39.754;2022-11-27T09:37:47;101804.22;;;24.00;30.82
74637;BME280;63141;54.616;39.754;2022-11-27T09:40:55;101811.34;;;24.00;31.21
74637;BME280;63141;54.616;39.754;2022-11-27T09:44:02;101809.59;;;23.99;31.10
74637;BME280;63141;54.616;39.754;2022-11-27T09:50:26;101805.19;;;23.98;31.04
74637;BME280;63141;54.616;39.754;2022-11-27T09:53:42;101801.66;;;23.97;31.29
74637;BME280;63141;54.616;39.754;2022-11-27T09:56:48;101806.97;;;23.97;31.16
74637;BME280;63141;54.616;39.754;2022-11-27T09:59:52;101804.31;;;23.96;31.30
74637;BME280;63141;54.616;39.754;2022-11-27T10:02:54;101811.41;;;23.97;31.53
74637;BME280;63141;54.616;39.754;2022-11-27T10:19:43;101812.16;;;24.03;35.94
74637;BME280;63141;54.616;39.754;2022-11-27T10:23:26;101809.44;;;24.07;36.19
74637;BME280;63141;54.616;39.754;2022-11-27T10:26:42;101809.44;;;24.05;36.04
74637;BME280;63141;54.616;39.754;2022-11-27T10:29:50;101813.00;;;24.06;36.27
74637;BME280;63141;54.616;39.754;2022-11-27T10:32:54;101820.09;;;24.05;36.21
74637;BME280;63141;54.616;39.754;2022-11-27T10:35:57;101813.88;;;24.06;36.22
74637;BME280;63141;54.616;39.754;2022-11-27T10:39:02;101813.91;;;24.04;36.34
74637;BME280;63141;54.616;39.754;2022-11-27T10:42:18;101811.22;;;24.06;36.13
74637;BME280;63141;54.616;39.754;2022-11-27T10:45:35;101811.22;;;24.06;35.45
74637;BME280;63141;54.616;39.754;2022-11-27T10:48:38;101816.56;;;24.04;35.55
74637;BME280;63141;54.616;39.754;2022-11-27T10:51:40;101823.69;;;24.04;35.64
74637;BME280;63141;54.616;39.754;2022-11-27T10:54:42;101813.97;;;24.03;35.49
74637;BME280;63141;54.616;39.754;2022-11-27T10:58:07;101821.03;;;24.02;34.93
74637;BME280;63141;54.616;39.754;2022-11-27T11:01:19;101813.13;;;24.01;34.91
74637;BME280;63141;54.616;39.754;2022-11-27T11:04:26;101819.31;;;24.00;34.62
74637;BME280;63141;54.616;39.754;2022-11-27T11:07:30;101822.94;;;23.97;34.48
74637;BME280;63141;54.616;39.754;2022-11-27T11:10:48;101823.81;;;23.98;34.60
74637;BME280;63141;54.616;39.754;2022-11-27T11:13:50;101828.25;;;23.97;34.27
74637;BME280;63141;54.616;39.754;2022-11-27T11:16:53;101820.25;;;23.99;34.00
74637;BME280;63141;54.616;39.754;2022-11-27T11:19:54;101815.81;;;23.98;34.19
74637;BME280;63141;54.616;39.754;2022-11-27T11:22:56;101813.16;;;23.98;34.10
74637;BME280;63141;54.616;39.754;2022-11-27T11:26:01;101818.47;;;23.98;33.40
74637;BME280;63141;54.616;39.754;2022-11-27T11:29:16;101816.75;;;23.97;33.61
74637;BME280;63141;54.616;39.754;2022-11-27T11:32:24;101827.38;;;23.97;33.54
74637;BME280;63141;54.616;39.754;2022-11-27T11:35:35;101816.75;;;23.97;33.48
74637;BME280;63141;54.616;39.754;2022-11-27T11:38:37;101819.41;;;23.97;33.51
74637;BME280;63141;54.616;39.754;2022-11-27T11:41:44;101823.88;;;23.95;33.23
74637;BME280;63141;54.616;39.754;2022-11-27T11:45:05;101821.22;;;23.95;33.35
74637;BME280;63141;54.616;39.754;2022-11-27T11:48:23;101814.97;;;23.96;33.16
74637;BME280;63141;54.616;39.754;2022-11-27T11:58:05;101814.09;;;23.95;32.77
74637;BME280;63141;54.616;39.754;2022-11-27T12:11:14;101832.78;;;23.94;32.71
74637;BME280;63141;54.616;39.754;2022-11-27T12:14:35;101831.88;;;23.93;32.43
74637;BME280;63141;54.616;39.754;2022-11-27T12:17:54;101832.78;;;23.94;32.76
74637;BME280;63141;54.616;39.754;2022-11-27T12:21:15;101830.16;;;23.92;32.58
74637;BME280;63141;54.616;39.754;2022-11-27T12:31:10;101841.66;;;23.93;32.41
74637;BME280;63141;54.616;39.754;2022-11-27T12:43:47;101854.13;;;23.91;32.10
74637;BME280;63141;54.616;39.754;2022-11-27T12:46:59;101855.88;;;23.92;32.06
74637;BME280;63141;54.616;39.754;2022-11-27T12:50:21;101867.44;;;23.91;31.85
74637;BME280;63141;54.616;39.754;2022-11-27T12:53:40;101863.03;;;23.90;31.94
74637;BME280;63141;54.616;39.754;2022-11-27T12:56:46;101868.38;;;23.88;32.06
74637;BME280;63141;54.616;39.754;2022-11-27T13:00:02;101865.69;;;23.90;31.67
74637;BME280;63141;54.616;39.754;2022-11-27T13:03:17;101853.25;;;23.90;31.97
74637;BME280;63141;54.616;39.754;2022-11-27T13:06:30;101860.38;;;23.90;31.87
74637;BME280;63141;54.616;39.754;2022-11-27T13:09:41;101864.75;;;23.91;32.23
74637;BME280;63141;54.616;39.754;2022-11-27T13:12:59;101854.13;;;23.91;35.18
74637;BME280;63141;54.616;39.754;2022-11-27T13:16:25;101872.75;;;23.91;35.22
74637;BME280;63141;54.616;39.754;2022-11-27T13:19:34;101869.19;;;23.92;34.59
74637;BME280;63141;54.616;39.754;2022-11-27T13:22:36;101861.16;;;23.93;35.05
74637;BME280;63141;54.616;39.754;2022-11-27T13:25:47;101861.06;;;23.98;35.12
74637;BME280;63141;54.616;39.754;2022-11-27T13:28:54;101862.75;;;24.02;35.75
74637;BME280;63141;54.616;39.754;2022-11-27T13:31:59;101864.38;;;24.09;35.58
74637;BME280;63141;54.616;39.754;2022-11-27T13:38:25;101868.41;;;24.29;35.98
74637;BME280;63141;54.616;39.754;2022-11-27T13:41:38;101860.22;;;24.38;36.15
74637;BME280;63141;54.616;39.754;2022-11-27T13:44:42;101860.06;;;24.47;35.94
74637;BME280;63141;54.616;39.754;2022-11-27T13:47:44;101858.06;;;24.55;35.68
74637;BME280;63141;54.616;39.754;2022-11-27T13:50:46;101861.34;;;24.68;35.52
74637;BME280;63141;54.616;39.754;2022-11-27T13:53:48;101863.81;;;24.76;35.29
74637;BME280;63141;54.616;39.754;2022-11-27T13:56:49;101860.91;;;24.85;35.28
74637;BME280;63141;54.616;39.754;2022-11-27T14:03:00;101865.00;;;25.00;35.11
74637;BME280;63141;54.616;39.754;2022-11-27T14:06:26;101869.25;;;25.08;34.99
74637;BME280;63141;54.616;39.754;2022-11-27T14:15:58;101869.78;;;25.23;34.39
74637;BME280;63141;54.616;39.754;2022-11-27T14:19:25;101862.78;;;25.19;34.19
74637;BME280;63141;54.616;39.754;2022-11-27T14:23:03;101869.06;;;25.15;34.17
74637;BME280;63141;54.616;39.754;2022-11-27T14:26:25;101869.16;;;25.12;34.21
74637;BME280;63141;54.616;39.754;2022-11-27T14:29:29;101869.16;;;25.12;34.74
74637;BME280;63141;54.616;39.754;2022-11-27T14:32:34;101874.47;;;25.12;35.33
74637;BME280;63141;54.616;39.754;2022-11-27T14:35:36;101865.44;;;25.17;34.97
74637;BME280;63141;54.616;39.754;2022-11-27T14:38:37;101867.13;;;25.23;34.33
74637;BME280;63141;54.616;39.754;2022-11-27T14:41:38;101870.53;;;25.28;34.12
74637;BME280;63141;54.616;39.754;2022-11-27T14:44:40;101868.63;;;25.33;33.94
74637;BME280;63141;54.616;39.754;2022-11-27T14:47:51;101868.56;;;25.36;34.06
74637;BME280;63141;54.616;39.754;2022-11-27T14:50:54;101873.81;;;25.39;33.86
74637;BME280;63141;54.616;39.754;2022-11-27T14:53:59;101863.84;;;25.46;33.63
74637;BME280;63141;54.616;39.754;2022-11-27T14:57:01;101863.75;;;25.49;34.07
74637;BME280;63141;54.616;39.754;2022-11-27T15:00:23;101863.63;;;25.54;34.20
74637;BME280;63141;54.616;39.754;2022-11-27T15:03:27;101863.50;;;25.58;33.54
74637;BME280;63141;54.616;39.754;2022-11-27T15:09:34;101858.97;;;25.62;33.65
74637;BME280;63141;54.616;39.754;2022-11-27T15:12:44;101857.13;;;25.64;33.46
74637;BME280;63141;54.616;39.754;2022-11-27T15:19:15;101868.31;;;25.45;33.55
74637;BME280;63141;54.616;39.754;2022-11-27T15:22:20;101875.53;;;25.40;33.42
74637;BME280;63141;54.616;39.754;2022-11-27T15:25:40;101868.50;;;25.38;33.41
74637;BME280;63141;54.616;39.754;2022-11-27T15:28:50;101870.38;;;25.34;33.46
74637;BME280;63141;54.616;39.754;2022-11-27T15:31:52;101873.88;;;25.36;33.48
74637;BME280;63141;54.616;39.754;2022-11-27T15:34:53;101872.00;;;25.40;34.00
74637;BME280;63141;54.616;39.754;2022-11-27T15:37:56;101875.50;;;25.42;34.52
74637;BME280;63141;54.616;39.754;2022-11-27T15:40:58;101879.03;;;25.42;34.45
74637;BME280;63141;54.616;39.754;2022-11-27T15:44:00;101883.59;;;25.39;34.17
74637;BME280;63141;54.616;39.754;2022-11-27T15:47:04;101881.00;;;25.36;34.04
74637;BME280;63141;54.616;39.754;2022-11-27T15:50:11;101893.56;;;25.32;33.77
74637;BME280;63141;54.616;39.754;2022-11-27T15:53:13;101885.63;;;25.29;34.35
74637;BME280;63141;54.616;39.754;2022-11-27T15:56:15;101887.34;;;25.32;34.63
74637;BME280;63141;54.616;39.754;2022-11-27T15:59:16;101888.94;;;25.39;34.44
74637;BME280;63141;54.616;39.754;2022-11-27T16:02:20;101894.03;;;25.48;33.62
74637;BME280;63141;54.616;39.754;2022-11-27T16:05:23;101892.91;;;25.57;33.86
74637;BME280;63141;54.616;39.754;2022-11-27T16:08:24;101890.97;;;25.62;33.43
74637;BME280;63141;54.616;39.754;2022-11-27T16:11:28;101889.06;;;25.67;33.35
74637;BME280;63141;54.616;39.754;2022-11-27T16:14:30;101899.59;;;25.71;33.31
74637;BME280;63141;54.616;39.754;2022-11-27T16:17:31;101901.31;;;25.74;33.05
74637;BME280;63141;54.616;39.754;2022-11-27T16:20:32;101897.66;;;25.78;33.46
74637;BME280;63141;54.616;39.754;2022-11-27T16:23:35;101901.16;;;25.80;32.71
74637;BME280;63141;54.616;39.754;2022-11-27T16:26:36;101900.19;;;25.83;32.85
74637;BME280;63141;54.616;39.754;2022-11-27T16:29:38;101895.66;;;25.86;32.84
74637;BME280;63141;54.616;39.754;2022-11-27T16:32:39;101905.41;;;25.89;32.66
74637;BME280;63141;54.616;39.754;2022-11-27T16:35:42;101891.91;;;25.94;32.38
74637;BME280;63141;54.616;39.754;2022-11-27T16:38:44;101896.31;;;25.95;32.28
74637;BME280;63141;54.616;39.754;2022-11-27T16:41:46;101901.00;;;25.86;32.58
74637;BME280;63141;54.616;39.754;2022-11-27T16:44:48;101899.38;;;25.79;32.42
74637;BME280;63141;54.616;39.754;2022-11-27T16:47:50;101902.16;;;25.76;32.99
74637;BME280;63141;54.616;39.754;2022-11-27T16:51:00;101901.31;;;25.74;32.42
74637;BME280;63141;54.616;39.754;2022-11-27T16:54:04;101908.47;;;25.72;32.29
74637;BME280;63141;54.616;39.754;2022-11-27T16:57:05;101923.66;;;25.70;32.26
74637;BME280;63141;54.616;39.754;2022-11-27T17:00:08;101912.19;;;25.68;32.31
74637;BME280;63141;54.616;39.754;2022-11-27T17:03:10;101922.84;;;25.68;32.43
74637;BME280;63141;54.616;39.754;2022-11-27T17:06:16;101929.06;;;25.68;32.10
74637;BME280;63141;54.616;39.754;2022-11-27T17:09:18;101942.34;;;25.70;32.06
74637;BME280;63141;54.616;39.754;2022-11-27T17:12:20;101936.13;;;25.69;31.98
74637;BME280;63141;54.616;39.754;2022-11-27T17:15:21;101936.13;;;25.69;31.93
74637;BME280;63141;54.616;39.754;2022-11-27T17:18:23;101945.94;;;25.69;31.91
74637;BME280;63141;54.616;39.754;2022-11-27T17:21:30;101932.56;;;25.70;32.01
74637;BME280;63141;54.616;39.754;2022-11-27T17:24:32;101933.53;;;25.68;32.15
74637;BME280;63141;54.616;39.754;2022-11-27T17:27:36;101929.91;;;25.70;32.20
74637;BME280;63141;54.616;39.754;2022-11-27T17:30:38;101933.44;;;25.71;32.05
74637;BME280;63141;54.616;39.754;2022-11-27T17:33:39;101936.06;;;25.73;32.13
74637;BME280;63141;54.616;39.754;2022-11-27T17:36:41;101932.47;;;25.74;31.78